Time;durP1;ratioP1;P1;durP2;ratioP2;P2;SDS_P1;SDS_P2;PMS_P1;PMS_P2;Temp;Humidity;BMP_temperature;BMP_pressure;BME280_temperature;BME280_humidity;BME280_pressure;Samples;Min_cycle;Max_cycle;Signal;HPM_P1;HPM_P2
2021/07/04 00:02:12;;;;;;;5.15;2.92;;;;;;;18.16;100.00;99683.63;1707292;83;21011;-50
2021/07/04 00:04:56;;;;;;;4.87;2.47;;;;;;;18.16;100.00;99677.30;1732000;80;20983;-50
2021/07/04 00:07:42;;;;;;;2.80;2.42;;;;;;;18.15;100.00;99672.34;1750618;81;20999;-50
2021/07/04 00:10:33;;;;;;;3.58;3.10;;;;;;;18.15;100.00;99670.97;1724535;82;21859;-50
2021/07/04 00:13:19;;;;;;;3.05;2.75;;;;;;;18.14;100.00;99669.34;1757953;81;21022;-50
2021/07/04 00:16:04;;;;;;;2.87;2.37;;;;;;;18.14;100.00;99675.45;1692238;82;21011;-45
2021/07/04 00:18:50;;;;;;;2.98;2.02;;;;;;;18.13;100.00;99673.86;1721759;81;21022;-45
2021/07/04 00:21:37;;;;;;;3.92;2.20;;;;;;;18.12;100.00;99673.61;1710496;81;21035;-45
2021/07/04 00:24:22;;;;;;;6.00;3.05;;;;;;;18.08;100.00;99669.95;1687546;82;21566;-45
2021/07/04 00:27:07;;;;;;;4.00;2.33;;;;;;;18.03;100.00;99668.23;1760424;81;21047;-45
2021/07/04 00:29:51;;;;;;;3.05;2.47;;;;;;;17.97;100.00;99671.78;1711383;82;21501;-45
2021/07/04 00:32:37;;;;;;;2.72;2.42;;;;;;;17.93;100.00;99671.47;1730654;81;21460;-46
2021/07/04 00:35:22;;;;;;;4.05;2.55;;;;;;;17.89;100.00;99669.97;1726613;82;21018;-45
2021/07/04 00:38:08;;;;;;;10.25;3.33;;;;;;;17.89;100.00;99659.48;1688191;83;21005;-50
2021/07/04 00:40:53;;;;;;;3.83;2.25;;;;;;;17.88;100.00;99660.08;1724177;81;21038;-50
2021/07/04 00:43:39;;;;;;;4.15;2.50;;;;;;;17.88;100.00;99657.86;1701958;83;21006;-50
2021/07/04 00:46:24;;;;;;;5.45;2.40;;;;;;;17.86;100.00;99660.99;1704212;82;20966;-50
2021/07/04 00:49:09;;;;;;;4.03;2.75;;;;;;;17.85;100.00;99657.98;1719817;82;21002;-50
2021/07/04 00:51:53;;;;;;;3.05;2.22;;;;;;;17.81;100.00;99652.94;1711703;82;21033;-50
2021/07/04 00:54:38;;;;;;;3.37;2.35;;;;;;;17.78;100.00;99660.52;1740612;81;21101;-45
2021/07/04 00:57:23;;;;;;;2.98;2.20;;;;;;;17.73;100.00;99660.72;1766063;80;21046;-45
2021/07/04 01:00:10;;;;;;;2.95;2.05;;;;;;;17.69;100.00;99658.45;1728893;81;20971;-51
2021/07/04 01:02:56;;;;;;;2.90;2.10;;;;;;;17.66;100.00;99659.14;1718030;82;21034;-51
2021/07/04 01:05:42;;;;;;;3.60;2.55;;;;;;;17.63;100.00;99659.27;1701860;84;21583;-46
2021/07/04 01:08:29;;;;;;;3.02;2.25;;;;;;;17.60;100.00;99652.44;1723811;82;20982;-51
2021/07/04 01:11:14;;;;;;;3.12;2.45;;;;;;;17.56;100.00;99652.92;1766778;80;21453;-51
2021/07/04 01:13:59;;;;;;;2.15;1.80;;;;;;;17.52;100.00;99660.28;1727289;80;21048;-47
2021/07/04 01:16:48;;;;;;;4.75;2.50;;;;;;;17.49;100.00;99662.36;1692322;83;21054;-46
2021/07/04 01:19:33;;;;;;;3.80;2.22;;;;;;;17.48;100.00;99662.14;1722681;82;21014;-47
2021/07/04 01:22:19;;;;;;;3.72;2.15;;;;;;;17.46;100.00;99671.34;1723205;82;21531;-45
2021/07/04 01:25:09;;;;;;;2.15;1.62;;;;;;;17.39;100.00;99680.77;1690972;84;20999;-45
2021/07/04 01:27:56;;;;;;;2.72;1.85;;;;;;;17.34;100.00;99687.89;1742168;81;21002;-45
2021/07/04 01:30:41;;;;;;;4.60;2.30;;;;;;;17.33;100.00;99683.50;1735831;82;21566;-46
2021/07/04 01:33:27;;;;;;;3.22;2.25;;;;;;;17.32;100.00;99687.43;1688521;82;20998;-51
2021/07/04 01:36:13;;;;;;;3.08;2.17;;;;;;;17.30;100.00;99693.28;1736858;81;21010;-46
2021/07/04 01:38:59;;;;;;;3.33;2.33;;;;;;;17.28;100.00;99694.20;1708177;82;21027;-50
2021/07/04 01:41:44;;;;;;;3.75;2.62;;;;;;;17.26;100.00;99694.30;1732172;81;21034;-46
2021/07/04 01:44:31;;;;;;;1.98;1.77;;;;;;;17.24;100.00;99697.42;1734769;81;20988;-45
2021/07/04 01:47:15;;;;;;;4.80;2.30;;;;;;;17.21;100.00;99700.88;1684763;82;21200;-45
2021/07/04 01:50:00;;;;;;;2.55;1.92;;;;;;;17.17;100.00;99702.13;1755894;81;20994;-46
2021/07/04 01:52:45;;;;;;;2.40;2.20;;;;;;;17.12;100.00;99700.96;1730111;82;21000;-52
2021/07/04 01:55:30;;;;;;;2.27;1.87;;;;;;;17.09;100.00;99708.55;1729476;81;20988;-51
2021/07/04 01:58:16;;;;;;;4.05;2.35;;;;;;;17.05;100.00;99706.23;1679564;85;21042;-45
2021/07/04 02:01:04;;;;;;;4.15;2.80;;;;;;;17.05;100.00;99702.09;1689419;81;21001;-46
2021/07/04 02:03:51;;;;;;;3.85;3.10;;;;;;;17.05;100.00;99704.85;1711992;82;20999;-51
2021/07/04 02:06:37;;;;;;;3.70;2.83;;;;;;;17.05;100.00;99707.61;1765734;80;20986;-47
2021/07/04 02:09:23;;;;;;;3.40;2.40;;;;;;;17.03;100.00;99700.82;1748074;81;21050;-50
2021/07/04 02:12:08;;;;;;;2.87;1.95;;;;;;;17.05;100.00;99704.85;1735579;82;20995;-46
2021/07/04 02:14:54;;;;;;;2.65;2.37;;;;;;;17.05;100.00;99704.85;1718595;82;21073;-50
2021/07/04 02:17:53;;;;;;;3.67;2.62;;;;;;;17.07;100.00;99705.91;1735481;81;21062;-50
2021/07/04 02:20:47;;;;;;;5.17;2.80;;;;;;;17.10;100.00;99716.25;1717836;81;21046;-51
2021/07/04 02:23:36;;;;;;;2.85;2.30;;;;;;;17.12;100.00;99718.91;1766634;81;21018;-51
2021/07/04 02:26:39;;;;;;;5.53;3.00;;;;;;;17.17;100.00;99720.06;1706736;83;21628;-51
2021/07/04 02:29:29;;;;;;;4.87;2.85;;;;;;;17.20;100.00;99719.95;1743046;82;22003;-45
2021/07/04 02:32:14;;;;;;;3.87;2.72;;;;;;;17.24;100.00;99727.00;1695566;83;21487;-51
2021/07/04 02:34:59;;;;;;;4.62;2.80;;;;;;;17.25;100.00;99722.50;1704114;83;20994;-45
2021/07/04 02:37:44;;;;;;;3.37;2.27;;;;;;;17.26;100.00;99726.89;1715652;83;21418;-51
2021/07/04 02:40:31;;;;;;;3.17;2.20;;;;;;;17.30;100.00;99735.28;1687171;82;20983;-50
2021/07/04 02:43:21;;;;;;;3.55;2.40;;;;;;;17.34;100.00;99740.36;1714326;83;21027;-51
2021/07/04 02:46:08;;;;;;;3.22;2.45;;;;;;;17.39;100.00;99748.42;1715593;82;21010;-51
2021/07/04 02:48:54;;;;;;;4.03;2.42;;;;;;;17.45;100.00;99748.42;1692867;82;21504;-51
2021/07/04 02:51:41;;;;;;;4.10;2.47;;;;;;;17.52;100.00;99742.34;1697968;82;21495;-45
2021/07/04 02:54:28;;;;;;;5.12;1.95;;;;;;;17.59;100.00;99745.34;1672853;83;20988;-45
2021/07/04 02:57:14;;;;;;;5.50;3.05;;;;;;;17.66;100.00;99758.02;1740658;81;21038;-51
2021/07/04 03:00:00;;;;;;;2.40;2.10;;;;;;;17.70;100.00;99758.92;1737192;81;21050;-46
2021/07/04 03:02:45;;;;;;;2.47;2.27;;;;;;;17.77;100.00;99766.07;1741411;80;20994;-46
2021/07/04 03:05:31;;;;;;;3.00;2.37;;;;;;;17.87;100.00;99764.84;1771022;78;21041;-51
2021/07/04 03:08:15;;;;;;;3.10;2.72;;;;;;;17.98;100.00;99770.73;1692377;84;20983;-50
2021/07/04 03:11:04;;;;;;;3.70;2.67;;;;;;;18.03;100.00;99776.03;1702335;81;21833;-47
2021/07/04 03:13:52;;;;;;;5.03;2.77;;;;;;;18.09;100.00;99780.75;1711137;81;20999;-45
2021/07/04 03:16:38;;;;;;;4.17;2.25;;;;;;;18.15;100.00;99789.02;1685447;82;21062;-46
2021/07/04 03:19:23;;;;;;;4.30;2.87;;;;;;;18.18;100.00;99783.62;1682273;83;21006;-47
2021/07/04 03:22:08;;;;;;;4.03;2.15;;;;;;;18.24;100.00;99789.72;1691582;82;21014;-47
2021/07/04 03:24:54;;;;;;;4.10;3.00;;;;;;;18.33;100.00;99786.26;1706011;82;21014;-49
2021/07/04 03:27:40;;;;;;;5.15;3.62;;;;;;;18.44;100.00;99778.28;1724989;81;20938;-50
2021/07/04 03:30:26;;;;;;;3.33;2.65;;;;;;;18.52;100.00;99779.30;1762693;81;20971;-50
2021/07/04 03:33:12;;;;;;;3.12;2.60;;;;;;;18.60;100.00;99779.77;1716207;80;20974;-51
2021/07/04 03:35:57;;;;;;;3.75;2.52;;;;;;;18.69;100.00;99778.47;1713625;81;20995;-50
2021/07/04 03:38:43;;;;;;;5.80;3.80;;;;;;;18.78;100.00;99781.11;1678984;84;20903;-49
2021/07/04 03:41:27;;;;;;;3.45;2.80;;;;;;;18.82;100.00;99772.94;1728495;80;20915;-44
2021/07/04 03:44:13;;;;;;;3.98;2.55;;;;;;;18.88;100.00;99781.20;1701067;82;21466;-45
2021/07/04 03:47:00;;;;;;;4.85;3.17;;;;;;;18.96;100.00;99776.67;1706522;82;21570;-50
2021/07/04 03:49:45;;;;;;;3.52;2.72;;;;;;;19.03;100.00;99780.44;1713612;82;21033;-50
2021/07/04 03:52:31;;;;;;;6.85;3.35;;;;;;;19.08;100.00;99782.16;1707504;82;21318;-45
2021/07/04 03:55:17;;;;;;;6.45;3.62;;;;;;;19.14;100.00;99777.99;1798171;79;21348;-45
2021/07/04 03:58:03;;;;;;;4.97;2.77;;;;;;;19.27;100.00;99771.22;1763077;81;21524;-50
2021/07/04 04:00:50;;;;;;;4.30;2.80;;;;;;;19.27;100.00;99771.22;1734881;80;21045;-45
2021/07/04 04:03:37;;;;;;;6.00;3.10;;;;;;;19.50;100.00;99769.24;1702021;83;21470;-50
2021/07/04 04:06:22;;;;;;;4.15;3.10;;;;;;;19.70;100.00;99759.89;1710164;83;20999;-45
2021/07/04 04:09:11;;;;;;;5.75;2.87;;;;;;;19.70;100.00;99759.89;1693145;82;21576;-46
2021/07/04 04:12:04;;;;;;;4.20;3.05;;;;;;;19.85;100.00;99761.63;1738479;82;21410;-45
2021/07/04 04:14:50;;;;;;;6.08;3.87;;;;;;;19.97;100.00;99763.72;1686871;81;21006;-50
2021/07/04 04:17:35;;;;;;;4.03;2.98;;;;;;;20.10;100.00;99753.35;1719428;82;21110;-51
2021/07/04 04:20:20;;;;;;;4.62;3.45;;;;;;;20.21;100.00;99751.41;1710768;81;21201;-51
2021/07/04 04:23:06;;;;;;;7.40;3.72;;;;;;;20.35;100.00;99762.24;1685236;83;21024;-51
2021/07/04 04:25:51;;;;;;;6.58;3.90;;;;;;;20.47;100.00;99755.74;1702403;83;21028;-51
2021/07/04 04:28:36;;;;;;;5.70;3.47;;;;;;;20.57;100.00;99753.84;1738427;81;21038;-46
2021/07/04 04:31:22;;;;;;;5.40;3.65;;;;;;;20.65;100.00;99755.35;1761607;81;21006;-46
2021/07/04 04:34:08;;;;;;;5.30;3.47;;;;;;;20.75;100.00;99754.80;1702293;83;21063;-51
2021/07/04 04:36:53;;;;;;;4.50;3.52;;;;;;;20.85;100.00;99758.38;1720034;81;21101;-46
2021/07/04 04:39:38;;;;;;;4.95;3.70;;;;;;;20.96;100.00;99763.55;1723250;81;20995;-46
2021/07/04 04:42:24;;;;;;;5.90;3.42;;;;;;;21.09;100.00;99757.84;1687284;83;21461;-46
2021/07/04 04:45:09;;;;;;;7.70;3.87;;;;;;;21.19;100.00;99765.56;1687738;84;21078;-52
2021/07/04 04:47:54;;;;;;;6.33;3.70;;;;;;;21.33;100.00;99769.22;1691812;83;21065;-49
2021/07/04 04:50:39;;;;;;;4.70;3.72;;;;;;;21.44;100.00;99762.72;1699221;82;21004;-52
2021/07/04 04:53:24;;;;;;;6.42;4.10;;;;;;;21.66;100.00;99764.47;1716638;83;20910;-47
2021/07/04 04:56:08;;;;;;;6.78;4.72;;;;;;;21.88;100.00;99771.19;1692215;83;21009;-46
2021/07/04 04:58:53;;;;;;;7.62;4.80;;;;;;;22.08;100.00;99771.34;1663799;85;21001;-46
2021/07/04 05:01:39;;;;;;;6.67;4.45;;;;;;;22.09;100.00;99769.36;1730859;81;21013;-47
2021/07/04 05:04:23;;;;;;;6.97;3.65;;;;;;;22.04;100.00;99770.47;1651410;84;21495;-47
2021/07/04 05:07:10;;;;;;;6.03;3.92;;;;;;;22.10;100.00;99766.78;1681228;84;21014;-46
2021/07/04 05:09:55;;;;;;;7.62;4.70;;;;;;;22.16;100.00;99764.50;1712776;83;21415;-46
2021/07/04 05:12:42;;;;;;;8.23;4.80;;;;;;;22.23;100.00;99771.00;1682629;83;21009;-53
2021/07/04 05:15:28;;;;;;;6.90;4.10;;;;;;;22.31;100.00;99764.95;1720716;81;21033;-52
2021/07/04 05:18:12;;;;;;;5.83;4.05;;;;;;;22.33;100.00;99764.78;1742001;82;21016;-52
2021/07/04 05:20:57;;;;;;;8.88;4.58;;;;;;;22.32;100.00;99763.16;1740304;81;20977;-52
2021/07/04 05:23:44;;;;;;;7.47;4.22;;;;;;;22.41;100.00;99769.06;1733862;82;21008;-46
2021/07/04 05:26:29;;;;;;;8.23;4.25;;;;;;;22.47;100.00;99766.95;1734410;82;20993;-51
2021/07/04 05:29:13;;;;;;;8.65;4.78;;;;;;;22.55;100.00;99759.50;1656854;84;21030;-47
2021/07/04 05:31:58;;;;;;;7.22;4.70;;;;;;;22.61;100.00;99762.18;1684697;82;21037;-52
2021/07/04 05:34:43;;;;;;;6.28;4.03;;;;;;;22.71;100.00;99764.89;1732737;82;21832;-47
2021/07/04 05:37:29;;;;;;;5.50;3.95;;;;;;;22.75;100.00;99765.16;1731693;82;21009;-46
2021/07/04 05:40:14;;;;;;;7.95;4.45;;;;;;;22.81;100.00;99762.83;1736249;82;21012;-51
2021/07/04 05:42:59;;;;;;;7.50;4.03;;;;;;;22.88;100.00;99757.95;1734506;81;21549;-52
2021/07/04 05:45:46;;;;;;;5.42;3.70;;;;;;;23.01;100.00;99764.89;1734421;82;21001;-46
2021/07/04 05:48:30;;;;;;;4.70;3.90;;;;;;;23.23;100.00;99766.53;1741266;82;20970;-46
2021/07/04 05:51:15;;;;;;;6.78;4.00;;;;;;;23.34;100.00;99757.68;1735015;81;21009;-50
2021/07/04 05:53:59;;;;;;;6.35;4.28;;;;;;;23.40;100.00;99761.14;1676554;84;21021;-49
2021/07/04 05:56:44;;;;;;;6.30;3.72;;;;;;;23.52;100.00;99750.91;1708835;83;20990;-44
2021/07/04 05:59:29;;;;;;;5.90;3.40;;;;;;;23.67;100.00;99758.81;1643104;85;20975;-43
2021/07/04 06:02:13;;;;;;;6.92;4.45;;;;;;;23.84;100.00;99760.98;1729065;81;20956;-49
2021/07/04 06:04:58;;;;;;;5.37;4.00;;;;;;;24.04;100.00;99765.72;1679046;83;21044;-44
2021/07/04 06:07:42;;;;;;;7.37;4.25;;;;;;;24.14;98.99;99762.80;1680805;84;21082;-43
2021/07/04 06:10:27;;;;;;;5.30;3.83;;;;;;;24.21;98.39;99762.85;1674000;84;21599;-44
2021/07/04 06:13:14;;;;;;;4.33;3.62;;;;;;;24.28;96.66;99764.87;1670240;85;21022;-43
2021/07/04 06:16:02;;;;;;;8.53;4.33;;;;;;;24.32;96.84;99765.10;1675132;85;21129;-43
2021/07/04 06:18:48;;;;;;;5.67;3.70;;;;;;;24.43;96.75;99760.39;1677967;84;21299;-48
2021/07/04 06:21:33;;;;;;;5.25;3.85;;;;;;;24.62;96.39;99762.70;1676336;82;21044;-48
2021/07/04 06:24:18;;;;;;;4.65;4.08;;;;;;;24.66;94.43;99761.53;1664796;84;21519;-44
2021/07/04 06:27:04;;;;;;;5.30;3.72;;;;;;;24.64;93.37;99761.72;1679830;85;21043;-49
2021/07/04 06:29:49;;;;;;;5.35;3.90;;;;;;;24.64;93.93;99767.31;1645610;83;21531;-43
2021/07/04 06:32:33;;;;;;;6.60;4.00;;;;;;;24.70;94.19;99763.53;1684363;84;21464;-44
2021/07/04 06:35:18;;;;;;;5.33;4.17;;;;;;;24.75;93.92;99775.13;1682995;84;21045;-43
2021/07/04 06:38:03;;;;;;;6.62;4.17;;;;;;;24.81;91.91;99771.38;1685389;83;21055;-44
2021/07/04 06:40:48;;;;;;;6.58;3.90;;;;;;;24.98;92.55;99771.26;1700514;83;21466;-48
2021/07/04 06:43:33;;;;;;;6.08;3.92;;;;;;;25.18;92.75;99774.55;1698797;82;21442;-48
2021/07/04 06:46:21;;;;;;;3.80;3.17;;;;;;;25.30;91.07;99772.17;1697783;82;20977;-44
2021/07/04 06:49:06;;;;;;;4.40;3.45;;;;;;;25.25;88.96;99761.38;1684915;84;21000;-48
2021/07/04 06:51:51;;;;;;;5.28;3.52;;;;;;;25.09;87.40;99759.50;1690066;84;21042;-43
2021/07/04 06:54:36;;;;;;;4.87;4.08;;;;;;;24.97;87.48;99768.24;1685643;84;21043;-42
2021/07/04 06:57:26;;;;;;;5.40;3.42;;;;;;;24.84;86.98;99763.00;1694973;83;21476;-48
2021/07/04 06:59:57;;;;;;;4.83;3.50;;;;;;;24.77;87.56;99764.37;1690749;84;21005;-48
2021/07/04 07:02:24;;;;;;;5.45;4.28;;;;;;;24.78;89.22;99762.39;1706229;83;21002;-48
2021/07/04 07:04:51;;;;;;;5.87;4.25;;;;;;;24.93;89.50;99755.67;1692336;83;21483;-44
2021/07/04 07:07:18;;;;;;;6.42;4.33;;;;;;;25.20;88.67;99756.78;1699725;83;21483;-49
2021/07/04 07:09:46;;;;;;;6.87;4.33;;;;;;;25.44;87.51;99749.63;1699888;84;20998;-49
2021/07/04 07:12:12;;;;;;;7.80;4.40;;;;;;;25.65;85.78;99748.25;1701374;82;20993;-43
2021/07/04 07:14:39;;;;;;;6.03;4.17;;;;;;;25.82;85.96;99752.26;1693524;84;21345;-43
2021/07/04 07:17:05;;;;;;;8.00;5.12;;;;;;;26.06;86.91;99742.25;1693184;83;21337;-49
2021/07/04 07:19:34;;;;;;;6.08;4.25;;;;;;;26.38;83.02;99747.00;1688635;82;21045;-49
2021/07/04 07:22:03;;;;;;;7.47;4.55;;;;;;;26.57;82.92;99740.18;1711155;83;21897;-48
2021/07/04 07:24:31;;;;;;;5.25;4.03;;;;;;;26.63;79.63;99737.75;1694199;83;20855;-48
2021/07/04 07:26:57;;;;;;;7.47;4.10;;;;;;;26.63;78.47;99739.16;1720462;83;21077;-44
2021/07/04 07:29:24;;;;;;;5.95;3.77;;;;;;;26.69;79.79;99741.75;1723673;82;21018;-43
2021/07/04 07:31:50;;;;;;;5.47;4.17;;;;;;;26.82;76.57;99748.48;1735554;82;21404;-49
2021/07/04 07:34:16;;;;;;;6.37;4.72;;;;;;;26.88;77.74;99747.45;1686928;84;21537;-48
2021/07/04 07:36:43;;;;;;;6.15;4.55;;;;;;;27.06;77.41;99752.99;1671635;85;21081;-43
2021/07/04 07:39:09;;;;;;;5.75;4.30;;;;;;;27.17;75.27;99755.13;1669013;84;21013;-48
2021/07/04 07:41:38;;;;;;;8.50;4.62;;;;;;;27.14;74.82;99753.94;1646293;85;21479;-43
2021/07/04 07:44:04;;;;;;;5.42;4.05;;;;;;;27.11;75.75;99756.77;1717871;82;21045;-49
2021/07/04 07:46:31;;;;;;;5.00;3.77;;;;;;;27.17;74.24;99762.13;1720392;83;20893;-48
2021/07/04 07:48:57;;;;;;;5.87;4.28;;;;;;;27.21;72.37;99755.94;1727429;82;21206;-43
2021/07/04 07:51:37;;;;;;;5.30;3.33;;;;;;;27.29;73.12;99765.11;1712654;82;21030;-48
2021/07/04 07:54:04;;;;;;;4.60;3.70;;;;;;;27.23;73.38;99767.55;1734809;82;21019;-48
2021/07/04 07:56:31;;;;;;;6.47;3.52;;;;;;;27.22;73.51;99765.94;1761021;80;21528;-48
2021/07/04 07:58:57;;;;;;;7.90;4.30;;;;;;;27.41;73.20;99766.83;1772771;80;21010;-49
2021/07/04 08:01:24;;;;;;;5.83;3.62;;;;;;;27.61;74.42;99762.09;1759426;80;20999;-42
2021/07/04 08:03:52;;;;;;;8.05;4.35;;;;;;;27.83;72.27;99763.54;1762214;80;21053;-43
2021/07/04 08:06:18;;;;;;;5.58;3.55;;;;;;;27.96;70.74;99753.20;1765939;79;21486;-44
2021/07/04 08:08:45;;;;;;;6.00;3.92;;;;;;;28.00;69.96;99763.81;1769873;80;21782;-49
2021/07/04 08:11:13;;;;;;;5.87;4.10;;;;;;;27.99;68.91;99756.58;1764783;79;21038;-49
2021/07/04 08:13:41;;;;;;;5.87;4.45;;;;;;;28.02;69.05;99752.36;1766662;81;21425;-48
2021/07/04 08:16:09;;;;;;;6.87;4.30;;;;;;;28.02;67.82;99757.18;1731783;80;20998;-44
2021/07/04 08:18:37;;;;;;;5.80;4.05;;;;;;;28.01;70.70;99751.36;1719558;81;21737;-43
2021/07/04 08:21:03;;;;;;;6.42;3.98;;;;;;;28.08;71.22;99753.48;1702459;82;21118;-49
2021/07/04 08:23:30;;;;;;;4.50;3.77;;;;;;;28.18;70.41;99750.39;1693841;83;21033;-48
2021/07/04 08:25:56;;;;;;;7.22;4.60;;;;;;;28.35;72.10;99759.06;1704358;84;21486;-43
2021/07/04 08:28:22;;;;;;;5.70;4.22;;;;;;;28.55;72.07;99758.66;1715219;82;21061;-44
2021/07/04 08:30:49;;;;;;;5.83;3.65;;;;;;;28.68;71.40;99764.53;1707627;83;21024;-44
2021/07/04 08:33:15;;;;;;;6.62;4.42;;;;;;;28.74;68.65;99755.84;1687071;84;21015;-45
2021/07/04 08:35:41;;;;;;;5.10;3.80;;;;;;;28.58;67.59;99755.61;1727800;81;21442;-43
2021/07/04 08:38:07;;;;;;;4.58;3.70;;;;;;;28.48;66.94;99754.52;1709351;82;21010;-48
2021/07/04 08:40:34;;;;;;;5.40;3.83;;;;;;;28.54;67.09;99748.64;1697333;82;21026;-48
2021/07/04 08:43:00;;;;;;;9.68;4.92;;;;;;;28.70;67.22;99757.27;1737045;82;21003;-46
2021/07/04 08:45:27;;;;;;;6.35;4.58;;;;;;;28.67;65.71;99760.13;1719307;82;21575;-49
2021/07/04 08:47:54;;;;;;;7.47;4.35;;;;;;;28.66;66.18;99754.31;1680734;84;21437;-44
2021/07/04 08:50:22;;;;;;;6.75;4.08;;;;;;;28.89;67.28;99764.27;1680050;85;21087;-49
2021/07/04 08:52:49;;;;;;;4.47;4.00;;;;;;;29.17;66.65;99757.31;1701634;83;21009;-49
2021/07/04 08:55:17;;;;;;;6.33;4.53;;;;;;;29.42;67.51;99753.52;1679133;84;21408;-49
2021/07/04 08:57:44;;;;;;;5.45;4.10;;;;;;;29.77;67.58;99745.76;1761703;80;21524;-49
2021/07/04 09:00:15;;;;;;;5.62;3.75;;;;;;;30.01;64.85;99752.20;1764158;80;21041;-49
2021/07/04 09:02:42;;;;;;;5.85;3.70;;;;;;;30.17;64.53;99755.75;1765306;80;21478;-43
2021/07/04 09:05:10;;;;;;;4.72;3.60;;;;;;;30.15;63.08;99750.54;1766642;80;21001;-49
2021/07/04 09:07:41;;;;;;;5.30;4.08;;;;;;;30.06;61.79;99748.09;1711233;81;21018;-49
2021/07/04 09:10:14;;;;;;;5.80;4.08;;;;;;;30.08;63.50;99738.61;1707794;82;21058;-44
2021/07/04 09:12:49;;;;;;;4.65;3.98;;;;;;;30.17;60.95;99738.85;1758927;80;21412;-47
2021/07/04 09:15:23;;;;;;;5.33;3.95;;;;;;;30.26;61.30;99736.27;1756985;80;21532;-44
2021/07/04 09:17:53;;;;;;;5.30;3.87;;;;;;;30.46;60.82;99729.24;1705784;84;21054;-43
2021/07/04 09:20:34;;;;;;;5.00;3.90;;;;;;;30.51;60.52;99737.81;1752226;79;21607;-49
2021/07/04 09:23:02;;;;;;;7.75;4.33;;;;;;;30.42;59.54;99737.78;1752570;79;21167;-49
2021/07/04 09:25:34;;;;;;;6.97;4.17;;;;;;;30.43;62.20;99735.75;1761692;79;20979;-44
2021/07/04 09:28:10;;;;;;;5.03;4.00;;;;;;;30.39;59.01;99736.43;1770434;79;21015;-46
2021/07/04 09:30:40;;;;;;;6.35;3.98;;;;;;;30.33;62.46;99730.50;1765565;79;21524;-49
2021/07/04 09:33:22;;;;;;;6.50;4.10;;;;;;;30.39;60.18;99731.61;1768435;80;20999;-49
2021/07/04 09:36:04;;;;;;;7.50;3.90;;;;;;;30.45;59.33;99733.92;1762229;79;20889;-44
2021/07/04 09:38:36;;;;;;;5.25;3.87;;;;;;;30.22;57.79;99729.91;1769208;79;21003;-44
2021/07/04 09:41:03;;;;;;;;;;;;;;;30.01;60.08;99732.48;1766611;79;21031;-49
2021/07/04 09:43:32;;;;;;;6.78;3.95;;;;;;;29.88;61.10;99732.31;1769070;79;20160;-49
2021/07/04 09:46:08;;;;;;;5.25;3.90;;;;;;;29.83;60.93;99737.02;1749119;79;21069;-44
2021/07/04 09:48:39;;;;;;;5.42;4.62;;;;;;;29.68;62.66;99723.80;1744162;80;21086;-48
2021/07/04 09:51:20;;;;;;;7.33;4.55;;;;;;;29.59;62.09;99727.73;1756066;80;21003;-44
2021/07/04 09:53:54;;;;;;;4.85;3.85;;;;;;;29.48;61.48;99730.73;1773379;80;20991;-43
2021/07/04 09:56:23;;;;;;;5.53;4.10;;;;;;;29.31;61.94;99729.77;1755539;79;20950;-45
2021/07/04 09:58:55;;;;;;;7.40;4.40;;;;;;;29.05;62.39;99731.31;1752431;80;21452;-43
2021/07/04 10:01:50;;;;;;;7.42;4.85;;;;;;;28.80;64.26;99719.00;1724240;81;20970;-44
2021/07/04 10:04:35;;;;;;;4.67;3.83;;;;;;;28.65;63.64;99716.98;1718017;82;21031;-49
2021/07/04 10:07:01;;;;;;;5.60;4.50;;;;;;;28.47;64.11;99710.17;1658176;85;21038;-49
2021/07/04 10:09:29;;;;;;;5.92;4.53;;;;;;;28.40;64.70;99708.03;1702998;82;20895;-43
2021/07/04 10:11:56;;;;;;;5.62;4.60;;;;;;;28.29;64.21;99706.14;1720170;83;21019;-43
2021/07/04 10:14:22;;;;;;;6.45;4.22;;;;;;;28.23;65.51;99707.80;1721696;82;20921;-48
2021/07/04 10:16:51;;;;;;;5.35;4.25;;;;;;;28.16;65.53;99699.45;1707349;83;21015;-48
2021/07/04 10:19:22;;;;;;;5.17;4.15;;;;;;;28.07;65.09;99693.55;1719235;82;20981;-43
2021/07/04 10:21:55;;;;;;;5.62;4.28;;;;;;;28.05;65.99;99694.56;1707488;82;21054;-43
2021/07/04 10:24:23;;;;;;;5.20;4.42;;;;;;;28.07;66.92;99695.74;1692133;83;21053;-52
2021/07/04 10:26:49;;;;;;;5.92;4.80;;;;;;;28.15;67.72;99703.48;1707273;82;21054;-46
2021/07/04 10:29:17;;;;;;;5.05;3.77;;;;;;;28.26;66.80;99698.56;1713204;81;21832;-46
2021/07/04 10:31:45;;;;;;;5.78;4.40;;;;;;;28.40;67.12;99702.41;1704432;81;20989;-51
2021/07/04 10:34:14;;;;;;;6.03;4.35;;;;;;;28.55;65.45;99705.27;1738766;80;21043;-46
2021/07/04 10:37:00;;;;;;;4.30;3.72;;;;;;;28.54;66.24;99704.27;1756269;79;21026;-51
2021/07/04 10:39:28;;;;;;;5.55;4.30;;;;;;;28.48;66.22;99702.53;1706628;83;20926;-43
2021/07/04 10:41:58;;;;;;;4.67;4.08;;;;;;;28.59;65.96;99697.59;1722783;81;21571;-43
2021/07/04 10:44:47;;;;;;;5.10;3.60;;;;;;;28.78;65.47;99705.17;1696253;82;21505;-48
2021/07/04 10:47:27;;;;;;;5.50;4.15;;;;;;;28.99;63.94;99700.67;1690390;82;21485;-43
2021/07/04 10:49:55;;;;;;;4.53;3.75;;;;;;;29.10;65.64;99713.98;1686744;82;21059;-45
2021/07/04 10:52:38;;;;;;;4.40;3.52;;;;;;;29.30;63.85;99707.09;1702922;82;21493;-48
2021/07/04 10:55:11;;;;;;;5.50;3.85;;;;;;;29.48;61.55;99705.40;1712040;81;21798;-44
2021/07/04 10:57:54;;;;;;;6.85;3.75;;;;;;;29.55;61.02;99702.47;1700888;82;21010;-43
2021/07/04 11:00:28;;;;;;;4.90;4.00;;;;;;;29.59;61.68;99709.44;1701241;82;21170;-43
2021/07/04 11:02:59;;;;;;;3.80;3.27;;;;;;;29.63;63.07;99711.59;1640406;86;21035;-49
2021/07/04 11:05:39;;;;;;;4.97;3.52;;;;;;;29.67;61.69;99710.14;1706026;82;21010;-47
2021/07/04 11:08:14;;;;;;;4.15;3.22;;;;;;;29.69;60.79;99702.06;1700669;83;21471;-51
2021/07/04 11:11:00;;;;;;;4.03;3.05;;;;;;;29.72;62.44;99695.57;1712975;82;21014;-47
2021/07/04 11:13:34;;;;;;;5.40;3.27;;;;;;;29.79;60.13;99695.45;1705732;82;20983;-51
2021/07/04 11:16:17;;;;;;;5.47;3.65;;;;;;;29.92;59.65;99696.44;1626183;86;21094;-51
2021/07/04 11:18:56;;;;;;;5.33;3.80;;;;;;;29.91;59.61;99696.24;1673278;84;21003;-50
2021/07/04 11:21:43;;;;;;;5.70;3.30;;;;;;;29.99;59.34;99701.13;1675400;85;21019;-46
2021/07/04 11:24:26;;;;;;;4.30;3.20;;;;;;;29.96;58.25;99695.75;1621284;87;21034;-49
2021/07/04 11:27:22;;;;;;;4.33;2.95;;;;;;;29.91;59.61;99691.23;1641056;86;21449;-49
2021/07/04 11:30:23;;;;;;;5.78;3.62;;;;;;;29.95;58.85;99688.53;1665054;84;21555;-42
2021/07/04 11:32:49;;;;;;;4.62;3.30;;;;;;;30.05;58.46;99685.95;1674927;84;21560;-49
2021/07/04 11:35:16;;;;;;;4.05;3.02;;;;;;;30.28;57.98;99690.15;1624444;86;21036;-49
2021/07/04 11:37:43;;;;;;;4.85;3.27;;;;;;;30.38;56.29;99682.09;1672529;84;21024;-48
2021/07/04 11:40:10;;;;;;;3.35;2.75;;;;;;;30.49;57.72;99681.08;1677993;83;21096;-44
2021/07/04 11:42:36;;;;;;;4.40;3.10;;;;;;;30.60;56.54;99681.04;1675617;85;21057;-43
2021/07/04 11:45:16;;;;;;;5.50;3.40;;;;;;;30.70;57.39;99691.13;1666929;83;21080;-49
2021/07/04 11:47:56;;;;;;;3.08;2.72;;;;;;;30.71;57.06;99687.06;1674734;85;21027;-49
2021/07/04 11:50:23;;;;;;;3.30;2.95;;;;;;;30.85;59.93;99683.34;1655202;85;21106;-43
2021/07/04 11:52:49;;;;;;;3.08;2.75;;;;;;;31.11;56.63;99682.18;1647855;87;20935;-49
2021/07/04 11:55:17;;;;;;;3.95;2.50;;;;;;;31.27;56.73;99690.64;1668004;85;20939;-44
2021/07/04 11:57:43;;;;;;;5.25;2.50;;;;;;;31.29;54.60;99682.53;1716453;82;21033;-43
2021/07/04 12:00:10;;;;;;;3.20;2.62;;;;;;;31.25;55.60;99683.23;1705822;84;21553;-48
2021/07/04 12:02:55;;;;;;;2.52;2.22;;;;;;;31.25;56.39;99675.39;1693583;83;21018;-44
2021/07/04 12:05:22;;;;;;;4.70;3.08;;;;;;;31.18;54.56;99677.78;1699113;84;21156;-49
2021/07/04 12:07:56;;;;;;;4.03;2.60;;;;;;;31.07;55.23;99682.87;1736827;82;21063;-49
2021/07/04 12:10:23;;;;;;;2.98;2.72;;;;;;;30.90;54.71;99686.27;1702111;82;21118;-50
2021/07/04 12:12:52;;;;;;;5.00;2.95;;;;;;;30.73;56.52;99682.57;1678821;84;21022;-43
2021/07/04 12:15:18;;;;;;;4.87;2.98;;;;;;;30.70;53.93;99689.71;1697451;83;21021;-43
2021/07/04 12:17:47;;;;;;;2.83;2.60;;;;;;;30.59;54.73;99684.31;1734556;82;21042;-43
2021/07/04 12:20:28;;;;;;;5.62;2.92;;;;;;;30.58;54.95;99688.34;1708977;82;21057;-44
2021/07/04 12:22:57;;;;;;;2.77;2.33;;;;;;;30.60;55.17;99677.43;1705975;83;21076;-44
2021/07/04 12:25:39;;;;;;;3.45;2.90;;;;;;;30.59;54.88;99670.22;1687045;83;21711;-49